Cummings, North Dakota
Current Conditions -  °F | °C
As of 8:53 PM on Friday 24 Oct 2014 (Local Time) from KGFK Reporting Station
Scattered Clouds Scattered Clouds  
Wind Chill: 54°   Ceiling: Unl
Heat Index: 54°   Visibility: 10mi
Dew Point: 34°   Wind: 9mph
Humidity: 47%   Direction: 280°W
Pressure: 29.84"   Gusts: NA
Location:  47.51°N, 97.08°W
Report Text: KGFK 250153Z 28008KT 10SM SCT250 12/01 A2984 RMK AO2 SLP111 T01220011
Loading
Personal Weather Stations






























Interactive Weather Map
Tropical Storm Tracking
New forecast layout! Learn more

10-Day Weather Forecast

Advertisements
Track Severe Weather on mobile